Time;durP1;ratioP1;P1;durP2;ratioP2;P2;SDS_P1;SDS_P2;PMS_P1;PMS_P2;Temp;Humidity;BMP_temperature;BMP_pressure;BME280_temperature;BME280_humidity;BME280_pressure;Samples;Min_cycle;Max_cycle;Signal;HPM_P1;HPM_P2
2022/11/16 00:00:33;;;;;;;2.85;1.48;;;;;;;19.30;50.25;99759.84;4994290;28;20080;-68
2022/11/16 00:03:02;;;;;;;5.03;1.77;;;;;;;19.29;50.25;99753.72;4993762;28;20537;-68
2022/11/16 00:05:28;;;;;;;4.10;1.70;;;;;;;19.28;50.20;99748.59;4993471;28;20085;-68
2022/11/16 00:07:53;;;;;;;4.72;1.63;;;;;;;19.29;50.03;99750.28;4993950;28;20037;-67
2022/11/16 00:10:19;;;;;;;3.08;1.52;;;;;;;19.28;50.28;99751.25;4993087;28;20042;-67
2022/11/16 00:12:44;;;;;;;4.15;2.00;;;;;;;19.21;49.92;99753.69;4993179;28;20034;-68
2022/11/16 00:15:09;;;;;;;4.00;1.75;;;;;;;19.23;49.97;99754.34;4993701;28;20414;-68
2022/11/16 00:17:34;;;;;;;4.20;1.47;;;;;;;19.25;50.01;99755.06;4993885;28;20034;-67
2022/11/16 00:20:00;;;;;;;3.33;1.57;;;;;;;19.25;50.21;99762.13;4991816;28;20275;-68
2022/11/16 00:22:25;;;;;;;3.45;1.50;;;;;;;19.25;49.86;99748.91;4993100;28;20732;-67
2022/11/16 00:24:50;;;;;;;3.30;1.40;;;;;;;19.23;50.44;99754.34;4992849;28;20117;-67
2022/11/16 00:27:15;;;;;;;3.53;1.60;;;;;;;19.22;50.06;99755.38;4993468;28;20278;-66
2022/11/16 00:29:41;;;;;;;2.70;1.50;;;;;;;19.23;50.17;99759.63;4993363;28;20267;-67
2022/11/16 00:32:06;;;;;;;3.73;1.53;;;;;;;19.21;50.27;99751.88;4993398;28;20288;-67
2022/11/16 00:34:31;;;;;;;3.70;1.58;;;;;;;19.23;50.21;99748.25;4992949;28;20305;-67
2022/11/16 00:36:57;;;;;;;4.50;1.65;;;;;;;19.17;50.01;99741.81;4993156;28;20058;-69
2022/11/16 00:39:23;;;;;;;4.35;1.60;;;;;;;19.19;50.33;99727.44;4992920;28;20056;-66
2022/11/16 00:41:48;;;;;;;3.03;1.40;;;;;;;19.13;50.23;99722.78;4993062;28;20486;-67
2022/11/16 00:44:14;;;;;;;3.17;1.40;;;;;;;19.16;50.15;99711.91;4992708;28;20041;-67
2022/11/16 00:46:40;;;;;;;3.13;1.60;;;;;;;19.13;50.09;99703.47;4993178;28;20041;-67
2022/11/16 00:49:05;;;;;;;3.83;1.52;;;;;;;19.16;50.27;99725.13;4992710;28;20092;-67
2022/11/16 00:51:31;;;;;;;4.47;1.73;;;;;;;19.17;50.29;99739.16;4992613;28;20044;-68
2022/11/16 00:53:56;;;;;;;2.88;1.50;;;;;;;19.16;50.22;99745.44;4993222;28;20033;-68
2022/11/16 00:56:22;;;;;;;3.25;1.50;;;;;;;19.15;50.25;99747.25;4992850;28;20057;-66
2022/11/16 00:58:48;;;;;;;3.70;1.60;;;;;;;19.15;50.22;99744.59;4992917;28;20561;-67
2022/11/16 01:01:14;;;;;;;4.18;1.70;;;;;;;19.09;50.34;99734.66;4992429;28;20038;-68
2022/11/16 01:03:39;;;;;;;3.10;1.40;;;;;;;19.13;50.38;99737.81;4992431;28;20089;-68
2022/11/16 01:06:10;;;;;;;3.28;1.60;;;;;;;19.08;50.38;99727.72;4992948;28;20198;-67
2022/11/16 01:08:37;;;;;;;3.47;1.58;;;;;;;19.11;50.24;99737.97;4992318;28;20030;-67
2022/11/16 01:13:48;;;;;;;3.55;1.52;;;;;;;19.04;50.55;99715.81;4992622;28;20033;-67
2022/11/16 01:16:18;;;;;;;3.05;1.52;;;;;;;19.06;50.59;99718.28;4992354;28;20403;-67
2022/11/16 01:18:47;;;;;;;3.75;1.50;;;;;;;19.03;50.56;99708.91;4992044;28;20398;-67
2022/11/16 01:21:12;;;;;;;2.92;1.33;;;;;;;19.02;50.31;99712.50;4992085;28;20038;-67
2022/11/16 01:23:37;;;;;;;3.03;1.63;;;;;;;19.00;50.54;99706.56;4992488;28;20046;-67
2022/11/16 01:26:03;;;;;;;3.20;1.53;;;;;;;19.01;50.61;99710.88;4992351;28;20980;-68
2022/11/16 01:28:29;;;;;;;3.03;1.48;;;;;;;18.99;50.65;99705.75;4992173;28;20263;-67
2022/11/16 01:30:55;;;;;;;2.75;1.42;;;;;;;18.96;50.48;99703.41;4992039;28;20074;-68
2022/11/16 01:33:21;;;;;;;2.47;1.40;;;;;;;19.02;50.58;99707.22;4992342;28;20042;-68
2022/11/16 01:35:46;;;;;;;3.45;1.52;;;;;;;19.02;50.42;99712.50;4991888;28;20045;-67
2022/11/16 01:38:11;;;;;;;2.70;1.40;;;;;;;18.99;50.54;99711.03;4991695;28;20040;-68
2022/11/16 01:40:37;;;;;;;3.80;1.50;;;;;;;18.98;50.43;99704.09;4992252;28;20267;-67
2022/11/16 01:43:02;;;;;;;3.85;1.38;;;;;;;18.94;50.52;99699.28;4992469;28;20274;-67
2022/11/16 01:45:40;;;;;;;3.22;1.55;;;;;;;18.93;50.57;99697.59;4992295;28;20083;-68
2022/11/16 01:48:07;;;;;;;3.13;1.33;;;;;;;18.96;50.54;99706.06;4991502;28;20581;-67
2022/11/16 01:50:32;;;;;;;2.72;1.33;;;;;;;18.93;50.53;99702.88;4991699;28;20026;-67
2022/11/16 01:53:00;;;;;;;3.10;1.50;;;;;;;18.92;50.71;99694.16;4991861;28;20422;-68
2022/11/16 01:55:29;;;;;;;3.22;1.40;;;;;;;18.92;50.51;99702.06;4991514;28;20061;-68
2022/11/16 01:57:55;;;;;;;2.88;1.50;;;;;;;18.85;50.56;99695.78;4991185;28;20474;-67
2022/11/16 02:00:21;;;;;;;4.43;1.85;;;;;;;18.92;50.79;99701.25;4992201;28;20025;-66
2022/11/16 02:02:46;;;;;;;3.60;1.40;;;;;;;18.93;50.71;99711.66;4991182;28;20093;-67
2022/11/16 02:05:16;;;;;;;3.40;1.60;;;;;;;18.85;50.78;99698.41;4991024;28;20968;-67
2022/11/16 02:11:03;;;;;;;2.33;1.30;;;;;;;18.91;50.68;99700.41;4991903;28;20382;-67
2022/11/16 02:14:02;;;;;;;3.03;1.30;;;;;;;18.90;50.86;99700.56;4991313;28;20034;-67
2022/11/16 02:16:59;;;;;;;3.38;1.50;;;;;;;18.88;50.75;99691.97;4991695;28;20105;-66
2022/11/16 02:19:50;;;;;;;3.22;1.50;;;;;;;18.86;50.82;99692.13;4978813;28;20041;-67
2022/11/16 02:22:47;;;;;;;3.03;1.48;;;;;;;18.88;50.96;99690.16;4991535;28;20038;-68
2022/11/16 02:25:43;;;;;;;3.40;1.40;;;;;;;18.86;50.68;99684.22;4991413;28;20042;-67
2022/11/16 02:28:33;;;;;;;3.13;1.50;;;;;;;18.85;50.84;99701.88;4991137;28;20045;-68
2022/11/16 02:31:02;;;;;;;3.25;1.55;;;;;;;18.81;51.05;99687.28;4991703;28;20044;-68
2022/11/16 02:33:35;;;;;;;3.90;1.67;;;;;;;18.82;51.02;99688.13;4991508;28;20061;-68
2022/11/16 02:36:04;;;;;;;3.75;1.50;;;;;;;18.84;50.66;99694.94;4990804;28;20061;-67
2022/11/16 02:38:37;;;;;;;2.67;1.38;;;;;;;18.82;50.94;99685.50;4990644;28;20038;-67
2022/11/16 02:41:10;;;;;;;3.33;1.52;;;;;;;18.81;51.05;99687.28;4991130;28;20446;-67
2022/11/16 02:43:45;;;;;;;3.00;1.52;;;;;;;18.81;50.86;99691.75;4992571;28;20042;-67
2022/11/16 02:46:34;;;;;;;3.15;1.50;;;;;;;18.80;51.03;99695.38;4995078;28;20084;-67
2022/11/16 02:49:04;;;;;;;2.63;1.30;;;;;;;18.76;51.17;99692.22;4995747;28;20382;-66
2022/11/16 02:51:32;;;;;;;3.28;1.55;;;;;;;18.78;51.11;99703.44;4994767;28;20030;-66
2022/11/16 02:54:03;;;;;;;5.68;1.33;;;;;;;18.77;51.16;99704.44;4994884;28;20050;-67
2022/11/16 02:56:29;;;;;;;3.60;1.38;;;;;;;18.75;50.97;99703.75;4994484;28;20057;-67
2022/11/16 02:58:57;;;;;;;2.72;1.17;;;;;;;18.76;51.16;99707.25;4994891;28;20045;-67
2022/11/16 03:01:47;;;;;;;2.38;1.30;;;;;;;18.79;50.89;99702.47;4995180;28;20061;-67
2022/11/16 03:04:25;;;;;;;2.80;1.35;;;;;;;18.76;50.78;99696.69;4994328;28;20482;-67
2022/11/16 03:06:52;;;;;;;3.50;1.50;;;;;;;18.78;50.84;99703.44;4994931;28;20034;-67
2022/11/16 03:09:23;;;;;;;3.22;1.45;;;;;;;18.77;51.17;99701.81;4993917;28;20790;-66
2022/11/16 03:11:59;;;;;;;3.05;1.40;;;;;;;18.73;51.16;99692.53;4994393;28;20038;-67
2022/11/16 03:14:43;;;;;;;3.20;1.45;;;;;;;18.79;51.01;99715.66;4993835;28;20153;-67
2022/11/16 03:17:24;;;;;;;2.42;1.30;;;;;;;18.72;51.08;99696.13;4994708;28;20437;-67
2022/11/16 03:19:56;;;;;;;3.45;1.60;;;;;;;18.72;51.18;99696.13;4994572;28;20588;-67
2022/11/16 03:22:44;;;;;;;2.78;1.27;;;;;;;18.77;51.27;99717.63;4994260;28;20081;-67
2022/11/16 03:25:12;;;;;;;2.65;1.20;;;;;;;18.77;51.01;99715.00;4994414;28;20050;-67
2022/11/16 03:27:43;;;;;;;3.10;1.30;;;;;;;18.75;50.95;99716.13;4994387;28;20034;-67
2022/11/16 03:30:19;;;;;;;2.83;1.30;;;;;;;18.72;50.87;99711.16;4994689;28;20117;-67
2022/11/16 03:32:55;;;;;;;3.88;1.50;;;;;;;18.71;51.12;99715.63;4993829;28;20490;-66
2022/11/16 03:35:25;;;;;;;2.78;1.20;;;;;;;18.70;51.03;99721.88;4994792;28;20138;-67
2022/11/16 03:37:54;;;;;;;3.88;1.33;;;;;;;18.74;50.91;99720.59;4993819;28;20049;-67
2022/11/16 03:40:22;;;;;;;3.35;1.27;;;;;;;18.73;51.29;99723.38;4994625;28;20041;-67
2022/11/16 03:42:48;;;;;;;2.00;1.20;;;;;;;18.71;51.01;99714.78;4994133;28;20483;-68
2022/11/16 03:45:16;;;;;;;2.75;1.40;;;;;;;18.69;50.73;99722.84;4994021;28;20112;-67
2022/11/16 03:47:41;;;;;;;2.83;1.35;;;;;;;18.74;50.86;99740.84;4993722;28;20470;-66
2022/11/16 03:50:11;;;;;;;2.55;1.20;;;;;;;18.68;51.11;99735.22;4993897;28;20045;-67
2022/11/16 03:52:36;;;;;;;2.72;1.33;;;;;;;18.72;50.87;99741.00;4994000;28;20034;-67
2022/11/16 03:55:03;;;;;;;2.03;1.10;;;;;;;18.69;50.96;99743.97;4993319;28;20054;-67
2022/11/16 03:57:28;;;;;;;4.10;1.30;;;;;;;18.73;50.91;99752.41;4993967;28;20045;-67
2022/11/16 03:59:53;;;;;;;2.60;1.20;;;;;;;18.71;50.77;99752.56;4993362;28;20034;-67
2022/11/16 04:02:19;;;;;;;2.15;1.10;;;;;;;18.65;50.96;99740.81;5000930;28;20033;-67
2022/11/16 04:24:20;;;;;;;2.72;1.25;;;;;;;18.65;50.74;99755.81;4993024;28;20045;-68
2022/11/16 04:29:38;;;;;;;2.75;1.30;;;;;;;18.63;50.71;99760.44;4993399;28;20049;-67
2022/11/16 04:37:48;;;;;;;2.55;1.17;;;;;;;18.59;50.52;99754.63;4993003;28;20041;-68
2022/11/16 04:40:14;;;;;;;2.67;1.15;;;;;;;18.60;50.59;99763.38;4992599;28;20034;-68
2022/11/16 04:42:40;;;;;;;1.80;0.90;;;;;;;18.56;50.55;99759.38;4993032;28;20038;-67
2022/11/16 04:47:49;;;;;;;;;;;;;;;18.57;50.84;99771.59;4993523;28;20049;-67
2022/11/16 04:50:16;;;;;;;1.65;0.90;;;;;;;18.55;50.63;99770.91;4993061;28;20317;-67
2022/11/16 04:52:41;;;;;;;1.67;0.90;;;;;;;18.57;50.84;99776.88;4992490;28;20120;-68
2022/11/16 04:55:07;;;;;;;2.20;1.00;;;;;;;18.57;51.19;99787.44;4992420;28;20125;-68
2022/11/16 04:57:32;;;;;;;2.65;1.23;;;;;;;18.50;50.74;99768.75;4992833;28;20299;-68
2022/11/16 04:59:57;;;;;;;2.17;1.00;;;;;;;18.57;50.94;99788.25;4992626;28;20049;-69
2022/11/16 05:02:23;;;;;;;3.50;1.23;;;;;;;18.56;50.60;99788.41;4991962;28;20332;-68
2022/11/16 05:04:48;;;;;;;1.63;0.90;;;;;;;18.56;50.73;99789.22;4992787;28;20271;-69
2022/11/16 05:07:14;;;;;;;2.37;1.00;;;;;;;18.58;50.59;99789.06;4991430;28;20478;-68
2022/11/16 05:09:44;;;;;;;1.90;1.00;;;;;;;18.55;50.47;99777.03;4992922;28;20275;-68
2022/11/16 05:12:13;;;;;;;2.47;1.08;;;;;;;18.57;50.39;99782.97;4992734;28;20041;-68
2022/11/16 05:14:39;;;;;;;2.00;1.17;;;;;;;18.60;50.48;99793.22;4992702;28;20033;-68
2022/11/16 05:17:04;;;;;;;2.40;1.00;;;;;;;18.62;50.54;99788.63;4992409;28;20045;-68
2022/11/16 05:22:13;;;;;;;2.73;1.10;;;;;;;18.58;50.44;99782.00;4992352;28;20843;-69
2022/11/16 05:24:38;;;;;;;1.83;0.95;;;;;;;18.58;50.45;99779.38;4992547;28;20125;-68
2022/11/16 05:27:06;;;;;;;2.75;1.10;;;;;;;18.58;50.24;99779.38;4992220;28;20034;-68
2022/11/16 05:29:32;;;;;;;3.53;1.10;;;;;;;18.58;50.18;99776.72;4991269;28;20070;-68
2022/11/16 05:31:58;;;;;;;2.63;1.00;;;;;;;18.56;50.32;99769.94;4992052;28;20406;-68
2022/11/16 05:34:24;;;;;;;2.67;1.20;;;;;;;18.59;49.97;99773.09;4992007;28;20033;-67
2022/11/16 05:36:49;;;;;;;2.95;1.08;;;;;;;18.60;50.03;99779.22;4992154;28;20096;-67
2022/11/16 05:39:15;;;;;;;2.05;0.93;;;;;;;18.61;50.12;99780.84;4992109;28;20037;-67
2022/11/16 05:41:40;;;;;;;2.30;1.05;;;;;;;18.60;49.85;99780.03;4992034;28;20470;-68
2022/11/16 05:44:05;;;;;;;1.80;0.90;;;;;;;18.58;49.98;99775.88;4991945;28;20042;-67
2022/11/16 05:46:31;;;;;;;2.00;1.00;;;;;;;18.56;50.28;99780.47;4991578;28;20350;-68
2022/11/16 05:48:56;;;;;;;2.58;0.90;;;;;;;18.59;49.95;99790.75;4992456;28;20268;-68
2022/11/16 05:51:21;;;;;;;2.47;1.00;;;;;;;18.57;49.85;99801.44;4991744;28;20469;-68
2022/11/16 05:53:48;;;;;;;2.05;1.10;;;;;;;18.54;49.81;99796.47;4991593;28;20137;-69
2022/11/16 05:56:14;;;;;;;2.03;1.17;;;;;;;18.55;50.12;99799.94;4991641;28;20085;-68
2022/11/16 05:58:40;;;;;;;2.53;1.30;;;;;;;18.49;49.78;99796.09;4991713;28;20496;-66
2022/11/16 06:01:06;;;;;;;2.53;0.90;;;;;;;18.50;50.02;99797.78;4991434;28;20045;-68
2022/11/16 06:03:31;;;;;;;2.60;1.00;;;;;;;18.48;49.84;99805.00;4991364;28;20034;-67
2022/11/16 06:05:57;;;;;;;2.30;1.08;;;;;;;18.51;49.89;99809.97;4991378;28;20041;-67
2022/11/16 06:08:23;;;;;;;3.17;0.90;;;;;;;18.52;49.98;99810.78;4991679;28;20046;-67
2022/11/16 06:10:48;;;;;;;2.47;1.15;;;;;;;18.48;49.95;99805.84;4991988;28;20030;-68
2022/11/16 06:13:14;;;;;;;3.38;1.10;;;;;;;18.43;49.58;99810.72;4991518;28;20153;-67
2022/11/16 06:15:40;;;;;;;2.58;1.10;;;;;;;18.42;49.65;99803.81;4991897;28;20061;-67
2022/11/16 06:18:06;;;;;;;2.22;1.10;;;;;;;18.43;49.93;99807.25;4991679;28;20038;-67
2022/11/16 06:20:32;;;;;;;3.03;1.27;;;;;;;18.48;49.81;99815.53;4991307;28;20045;-68
2022/11/16 06:22:57;;;;;;;2.78;1.08;;;;;;;18.45;50.00;99816.69;4991416;28;20105;-68
2022/11/16 06:25:23;;;;;;;2.88;1.10;;;;;;;18.52;49.88;99821.34;4991490;28;20109;-68
2022/11/16 06:27:48;;;;;;;1.77;0.93;;;;;;;18.51;50.13;99824.97;4990597;28;20035;-68
2022/11/16 06:30:13;;;;;;;1.77;1.00;;;;;;;18.57;50.17;99837.56;4991030;28;20475;-68
2022/11/16 06:32:39;;;;;;;5.18;1.20;;;;;;;18.53;49.93;99834.38;4991235;28;20303;-68
2022/11/16 06:35:05;;;;;;;2.03;0.85;;;;;;;18.60;50.19;99843.38;4998121;28;21273;-67
2022/11/16 06:37:30;;;;;;;3.67;1.10;;;;;;;18.56;49.75;99831.44;4991579;28;20152;-67
2022/11/16 06:39:55;;;;;;;5.18;1.20;;;;;;;18.62;49.32;99841.38;4991213;28;20070;-67
2022/11/16 06:42:20;;;;;;;2.40;1.00;;;;;;;18.62;49.21;99838.75;4990917;28;20057;-67
2022/11/16 06:44:46;;;;;;;2.88;1.40;;;;;;;18.52;48.83;99818.69;4991193;28;20756;-68
2022/11/16 06:47:11;;;;;;;3.17;1.20;;;;;;;18.61;49.12;99836.25;4990775;28;20069;-67
2022/11/16 06:49:36;;;;;;;2.93;1.27;;;;;;;18.60;49.66;99838.09;4991025;28;20829;-67
2022/11/16 06:52:02;;;;;;;2.37;1.00;;;;;;;18.71;49.53;99849.38;4990816;28;20270;-66
2022/11/16 06:54:27;;;;;;;2.70;1.10;;;;;;;18.74;49.89;99847.28;4990779;28;20263;-67
2022/11/16 06:56:52;;;;;;;4.23;1.17;;;;;;;18.80;49.79;99848.47;4990372;28;20405;-67
2022/11/16 06:59:17;;;;;;;2.50;1.10;;;;;;;18.83;50.37;99854.28;4988580;28;20334;-66
2022/11/16 07:01:42;;;;;;;2.55;1.10;;;;;;;18.85;50.23;99852.34;4991340;28;20272;-67
2022/11/16 07:04:10;;;;;;;2.57;1.00;;;;;;;18.91;50.27;99861.44;4990932;28;20042;-66
2022/11/16 07:06:36;;;;;;;3.42;1.33;;;;;;;18.94;49.94;99855.84;4990998;28;20266;-67
2022/11/16 07:09:04;;;;;;;2.50;1.05;;;;;;;18.99;50.01;99858.03;4990943;28;20026;-66
2022/11/16 07:11:30;;;;;;;2.83;1.25;;;;;;;18.97;49.84;99860.00;4990881;28;20058;-67
2022/11/16 07:13:55;;;;;;;2.43;1.00;;;;;;;19.00;49.83;99859.72;4991277;28;20068;-68
2022/11/16 07:16:20;;;;;;;3.97;1.33;;;;;;;18.98;50.12;99859.88;4990719;28;20294;-67
2022/11/16 07:18:46;;;;;;;2.33;1.00;;;;;;;19.06;49.67;99869.66;4990929;28;20177;-69
2022/11/16 07:21:13;;;;;;;3.83;1.38;;;;;;;19.05;49.61;99869.81;4990165;28;20121;-68
2022/11/16 07:23:38;;;;;;;2.17;1.02;;;;;;;18.92;49.74;99857.84;4990612;28;20084;-69
2022/11/16 07:26:05;;;;;;;2.88;1.00;;;;;;;19.05;49.69;99875.91;4990868;28;20470;-68
2022/11/16 07:28:31;;;;;;;3.92;1.10;;;;;;;19.04;49.89;99876.88;4990309;28;20133;-67
2022/11/16 07:31:07;;;;;;;3.38;1.40;;;;;;;18.99;49.79;99873.88;4994506;28;20110;-68
2022/11/16 07:33:33;;;;;;;4.88;1.10;;;;;;;19.05;49.68;99881.19;4994264;28;20034;-67
2022/11/16 07:36:04;;;;;;;4.80;1.10;;;;;;;19.05;49.47;99888.28;4994417;28;20044;-68
2022/11/16 07:38:30;;;;;;;1.73;0.88;;;;;;;18.99;49.58;99884.44;4993868;28;20123;-67
2022/11/16 07:41:04;;;;;;;2.55;1.08;;;;;;;19.00;49.52;99880.84;4994821;28;20034;-67
2022/11/16 07:43:34;;;;;;;;;;;;;;;19.03;49.39;99891.91;4994846;28;20042;-68
2022/11/16 07:46:08;;;;;;;2.35;1.00;;;;;;;19.08;49.30;99893.28;4994546;28;19917;-68
2022/11/16 07:48:34;;;;;;;4.18;1.10;;;;;;;18.99;49.54;99887.94;4991653;28;20045;-74
2022/11/16 07:51:03;;;;;;;4.80;1.20;;;;;;;19.04;49.62;99895.38;4992886;28;20029;-75
2022/11/16 07:53:29;;;;;;;4.20;1.40;;;;;;;19.09;49.46;99900.19;4992846;28;20041;-77
2022/11/16 07:55:55;;;;;;;3.25;1.10;;;;;;;18.95;49.45;99883.94;4993442;28;20088;-75
2022/11/16 07:58:21;;;;;;;3.60;1.50;;;;;;;19.12;49.24;99898.09;4999471;28;20054;-73
2022/11/16 08:00:47;;;;;;;2.63;1.17;;;;;;;19.20;48.90;99911.34;4993348;28;20034;-74
2022/11/16 08:03:12;;;;;;;2.95;1.10;;;;;;;19.24;48.99;99911.88;4993301;28;20515;-71
2022/11/16 08:05:38;;;;;;;2.47;1.33;;;;;;;19.27;49.04;99911.56;4993596;28;20437;-73
2022/11/16 08:08:03;;;;;;;4.18;1.40;;;;;;;19.26;48.99;99914.34;4992798;28;20141;-77
2022/11/16 08:10:29;;;;;;;3.55;1.30;;;;;;;19.33;48.70;99912.78;4993165;28;20081;-71
2022/11/16 08:12:55;;;;;;;3.10;1.10;;;;;;;19.35;48.59;99908.16;4992656;28;20065;-72
2022/11/16 08:15:20;;;;;;;3.65;1.38;;;;;;;19.36;48.64;99904.53;4993306;28;20451;-71
2022/11/16 08:17:46;;;;;;;4.70;1.13;;;;;;;19.45;48.56;99918.59;4992941;28;20030;-70
2022/11/16 08:20:11;;;;;;;3.67;1.15;;;;;;;19.40;48.31;99909.31;4992419;28;20041;-73
2022/11/16 08:22:37;;;;;;;3.20;1.25;;;;;;;19.44;48.36;99912.50;4992802;28;20042;-71
2022/11/16 08:25:02;;;;;;;4.80;1.20;;;;;;;19.44;48.43;99916.94;4992911;28;20036;-71
2022/11/16 08:27:28;;;;;;;4.60;1.20;;;;;;;19.40;48.38;99911.16;4992559;28;20117;-71
2022/11/16 08:29:53;;;;;;;3.63;1.20;;;;;;;19.38;48.62;99913.13;4991191;28;20033;-71
2022/11/16 08:32:18;;;;;;;1.97;1.00;;;;;;;19.31;48.55;99910.28;4992832;28;20045;-73
2022/11/16 08:34:44;;;;;;;6.95;1.60;;;;;;;19.32;48.30;99914.56;4992522;28;20822;-74
2022/11/16 08:37:09;;;;;;;3.88;1.15;;;;;;;19.25;48.58;99905.63;5006901;28;20034;-75
2022/11/16 08:39:34;;;;;;;8.67;1.70;;;;;;;19.28;48.76;99921.16;4992340;28;20034;-66
2022/11/16 08:41:59;;;;;;;2.63;1.05;;;;;;;19.23;48.63;99909.38;4991023;28;20751;-66
2022/11/16 08:44:24;;;;;;;4.57;1.10;;;;;;;19.24;48.83;99913.69;4992581;28;20034;-67
2022/11/16 08:46:50;;;;;;;5.07;1.40;;;;;;;19.23;48.71;99915.47;4992303;28;20276;-67
2022/11/16 08:49:15;;;;;;;3.72;1.13;;;;;;;19.19;48.38;99914.97;4992650;28;20298;-66
2022/11/16 08:51:40;;;;;;;4.80;1.33;;;;;;;19.24;48.84;99917.16;4993617;28;20112;-67
2022/11/16 08:54:06;;;;;;;5.03;1.30;;;;;;;19.21;48.85;99926.19;4991830;28;20319;-67
2022/11/16 08:56:31;;;;;;;3.88;1.17;;;;;;;19.21;48.65;99922.75;4992250;28;20049;-67
2022/11/16 08:58:57;;;;;;;2.80;1.08;;;;;;;19.22;48.51;99919.13;4992821;28;20042;-68
2022/11/16 09:01:24;;;;;;;2.70;1.00;;;;;;;19.25;48.56;99923.25;4992373;28;20049;-68
2022/11/16 09:03:52;;;;;;;4.30;1.00;;;;;;;19.23;48.51;99925.22;4992291;28;20042;-66
2022/11/16 09:06:18;;;;;;;3.55;1.48;;;;;;;19.19;48.67;99922.06;4991746;28;20041;-67
2022/11/16 09:08:45;;;;;;;3.67;1.17;;;;;;;19.19;48.63;99922.88;4992605;28;20038;-67
2022/11/16 09:11:17;;;;;;;3.80;1.08;;;;;;;19.09;48.52;99916.03;4992229;28;20050;-67
2022/11/16 09:13:43;;;;;;;3.75;1.20;;;;;;;19.07;48.58;99907.44;4992555;28;20116;-67
2022/11/16 09:16:09;;;;;;;5.20;1.50;;;;;;;19.06;48.39;99913.69;4991701;28;20060;-66
2022/11/16 09:18:34;;;;;;;5.75;1.30;;;;;;;19.16;48.15;99928.47;4992455;28;20467;-66
2022/11/16 09:21:00;;;;;;;5.25;1.20;;;;;;;19.15;48.35;99931.28;4992042;28;20041;-67
2022/11/16 09:23:25;;;;;;;4.78;1.10;;;;;;;19.14;48.32;99927.00;4993213;28;20128;-68
2022/11/16 09:25:50;;;;;;;3.22;1.10;;;;;;;19.16;48.58;99938.22;4992321;28;20034;-66
2022/11/16 09:28:20;;;;;;;4.10;1.10;;;;;;;19.13;48.39;99936.72;4992966;28;20035;-67
2022/11/16 09:30:49;;;;;;;4.10;1.30;;;;;;;19.13;48.67;99930.59;4992410;28;20042;-67
2022/11/16 09:33:14;;;;;;;4.63;1.08;;;;;;;19.15;48.52;99932.13;4992604;28;20042;-67
2022/11/16 09:35:40;;;;;;;3.88;1.20;;;;;;;19.16;48.50;99944.31;4991765;28;20030;-67
2022/11/16 09:38:06;;;;;;;3.13;1.10;;;;;;;19.14;48.70;99938.38;4991864;28;20041;-67
2022/11/16 09:40:37;;;;;;;4.18;1.17;;;;;;;19.12;48.43;99928.94;4991747;28;20096;-67
2022/11/16 09:43:27;;;;;;;3.95;1.17;;;;;;;19.12;48.28;99931.56;4991855;28;20044;-67
2022/11/16 09:46:16;;;;;;;5.55;1.40;;;;;;;19.10;48.47;99926.44;4990972;28;20034;-67
2022/11/16 09:48:42;;;;;;;2.63;0.90;;;;;;;19.15;48.52;99942.69;4991620;28;20366;-67
2022/11/16 09:51:12;;;;;;;4.60;1.40;;;;;;;19.10;48.62;99936.19;4991871;28;20034;-67
2022/11/16 09:53:44;;;;;;;4.03;1.45;;;;;;;19.16;48.45;99946.16;4991045;28;20478;-67
2022/11/16 09:56:12;;;;;;;2.65;1.13;;;;;;;19.09;48.54;99942.44;4990962;28;20065;-67
2022/11/16 09:58:46;;;;;;;2.60;1.00;;;;;;;19.05;48.38;99941.09;4991153;28;20109;-67
2022/11/16 10:01:22;;;;;;;5.72;1.20;;;;;;;19.11;48.59;99938.69;4991357;28;20112;-68
2022/11/16 10:03:54;;;;;;;2.17;0.95;;;;;;;19.12;48.58;99944.78;4991586;28;20048;-68
2022/11/16 10:06:40;;;;;;;5.63;1.10;;;;;;;19.05;48.38;99930.53;4992126;28;20132;-67
2022/11/16 10:09:11;;;;;;;7.28;1.15;;;;;;;19.11;48.67;99938.69;4990565;28;20482;-68
2022/11/16 10:11:42;;;;;;;3.55;1.17;;;;;;;19.16;48.75;99951.44;4991569;28;20034;-67
2022/11/16 10:14:14;;;;;;;3.28;1.00;;;;;;;19.11;48.44;99936.03;4991803;28;20048;-68
2022/11/16 10:16:51;;;;;;;2.42;1.10;;;;;;;19.16;48.55;99944.31;4991345;28;20030;-67
2022/11/16 10:19:34;;;;;;;3.83;1.20;;;;;;;19.13;48.46;99934.06;4991098;28;20128;-67
2022/11/16 10:22:12;;;;;;;3.28;1.00;;;;;;;19.17;48.69;99934.63;4991578;28;20171;-68
2022/11/16 10:24:57;;;;;;;3.67;1.00;;;;;;;19.17;48.73;99939.91;4990945;28;20034;-68
2022/11/16 10:27:41;;;;;;;;;;;;;;;19.15;48.72;99936.56;4991860;28;20031;-68
2022/11/16 10:30:16;;;;;;;2.58;1.10;;;;;;;19.18;48.60;99942.38;4990768;28;19917;-67
2022/11/16 10:32:48;;;;;;;2.83;0.90;;;;;;;19.18;48.50;99939.75;4990938;28;20434;-68
2022/11/16 10:35:23;;;;;;;3.50;1.13;;;;;;;19.18;48.68;99937.09;4991385;28;20026;-67
2022/11/16 10:37:50;;;;;;;2.50;1.00;;;;;;;19.12;48.42;99927.16;4990704;28;20034;-67
2022/11/16 10:40:22;;;;;;;3.10;1.05;;;;;;;19.14;48.51;99937.56;4991055;28;20077;-67
2022/11/16 10:42:56;;;;;;;5.40;1.30;;;;;;;19.17;48.83;99939.91;4991368;28;20049;-67
2022/11/16 10:45:31;;;;;;;;;;;;;;;19.16;48.70;99943.50;4991150;28;20372;-67
2022/11/16 10:48:11;;;;;;;4.72;1.20;;;;;;;19.19;48.40;99937.91;4990253;28;20028;-68
2022/11/16 10:50:44;;;;;;;3.65;0.93;;;;;;;19.17;48.56;99931.97;4989958;28;20106;-68
2022/11/16 10:53:35;;;;;;;3.08;1.00;;;;;;;19.17;48.60;99932.78;4990425;28;20045;-69
2022/11/16 10:56:13;;;;;;;3.30;0.93;;;;;;;19.18;48.27;99929.19;4990618;28;20050;-67
2022/11/16 10:58:51;;;;;;;2.67;1.00;;;;;;;19.20;48.55;99942.19;4990272;28;20038;-67
2022/11/16 11:01:35;;;;;;;3.92;1.00;;;;;;;19.20;48.38;99934.28;4990388;28;20053;-67
2022/11/16 11:04:15;;;;;;;4.15;0.98;;;;;;;19.21;48.24;99943.88;4991556;28;20160;-66
2022/11/16 11:06:41;;;;;;;3.45;0.90;;;;;;;19.16;48.51;99927.66;4994585;28;20034;-67
2022/11/16 11:09:23;;;;;;;3.33;1.10;;;;;;;19.16;48.34;99919.75;4994796;28;20475;-67
2022/11/16 11:14:58;;;;;;;3.47;1.02;;;;;;;19.20;48.33;99924.56;4995577;28;20076;-67
2022/11/16 11:17:23;;;;;;;2.40;0.90;;;;;;;19.20;48.50;99929.84;4995544;28;20092;-67
2022/11/16 11:20:00;;;;;;;2.90;1.00;;;;;;;19.19;48.49;99930.81;4995342;28;20034;-67
2022/11/16 11:22:26;;;;;;;2.58;1.00;;;;;;;19.15;48.77;99920.72;4994978;28;20060;-67
2022/11/16 11:24:51;;;;;;;2.70;0.90;;;;;;;19.17;48.97;99924.06;4994354;28;20471;-67
2022/11/16 11:27:23;;;;;;;5.18;1.08;;;;;;;19.15;48.56;99918.06;4994908;28;20026;-67
2022/11/16 11:29:54;;;;;;;2.95;1.10;;;;;;;19.18;48.45;99915.13;4994218;28;20979;-67
2022/11/16 11:32:22;;;;;;;4.25;1.15;;;;;;;19.15;48.35;99910.16;4994616;28;20046;-66
2022/11/16 11:34:53;;;;;;;2.38;1.10;;;;;;;19.17;48.20;99916.94;4994820;28;20034;-68
2022/11/16 11:37:27;;;;;;;3.00;1.00;;;;;;;19.19;48.34;99912.31;4994234;28;20042;-66
2022/11/16 11:40:08;;;;;;;3.53;0.80;;;;;;;19.18;48.45;99909.84;4994209;28;20092;-67
2022/11/16 11:42:33;;;;;;;2.97;1.10;;;;;;;19.14;48.35;99898.75;4994417;28;20041;-67
2022/11/16 11:45:04;;;;;;;1.73;0.70;;;;;;;19.18;48.46;99908.03;4993880;28;20042;-67
2022/11/16 11:47:42;;;;;;;2.83;0.95;;;;;;;19.18;48.55;99905.41;4993985;28;20042;-67
2022/11/16 11:50:39;;;;;;;2.38;0.98;;;;;;;19.19;48.53;99903.59;4993914;28;20200;-66
2022/11/16 11:53:15;;;;;;;3.33;0.90;;;;;;;19.17;48.42;99898.47;4993372;28;20046;-66
2022/11/16 11:55:40;;;;;;;2.65;0.90;;;;;;;19.14;48.46;99872.34;4993558;28;20050;-66
2022/11/16 11:58:13;;;;;;;3.00;1.00;;;;;;;19.17;48.29;99874.69;4994420;28;20032;-67
2022/11/16 12:01:07;;;;;;;5.40;1.17;;;;;;;19.16;48.50;99872.19;4994052;28;20042;-67
2022/11/16 12:04:07;;;;;;;2.88;0.90;;;;;;;19.18;48.50;99876.34;4993955;28;20045;-67
2022/11/16 12:06:50;;;;;;;3.30;0.90;;;;;;;19.19;48.37;99877.16;4993497;28;20060;-67
2022/11/16 12:09:16;;;;;;;3.47;1.00;;;;;;;19.19;48.41;99872.72;4993948;28;20417;-67
2022/11/16 12:12:00;;;;;;;1.97;0.90;;;;;;;19.16;48.47;99866.91;4994160;28;20049;-66
2022/11/16 12:14:57;;;;;;;2.55;0.90;;;;;;;19.19;47.80;99867.44;4993981;28;20349;-66
2022/11/16 12:17:31;;;;;;;3.47;0.90;;;;;;;19.20;48.20;99862.97;4993559;28;20038;-67
2022/11/16 12:20:02;;;;;;;3.22;0.90;;;;;;;19.19;48.45;99864.78;4992864;28;20441;-66
2022/11/16 12:22:57;;;;;;;2.08;0.90;;;;;;;19.15;48.40;99844.97;4993870;28;20042;-67
2022/11/16 12:25:38;;;;;;;3.63;1.00;;;;;;;19.20;48.27;99847.97;4994000;28;20396;-67
2022/11/16 12:28:28;;;;;;;4.07;0.90;;;;;;;19.14;48.56;99845.94;4993188;28;20034;-67